Haltom City, Texas
Current Conditions -  °F | °C
As of 12:53 PM on Friday 28 Nov 2014 (Local Time) from KFTW Reporting Station
Clear Clear  
Wind Chill: 66°   Ceiling: Unl
Heat Index: 66°   Visibility: 10mi
Dew Point: 48°   Wind: 23mph
Humidity: 52%   Direction: 190°S
Pressure: 30.1"   Gusts: 29mph
Location:  32.81°N, 97.27°W
Report Text: KFTW 281853Z 19020G25KT 10SM CLR 19/09 A3010 RMK AO2 PK WND 19026/1802 SLP190 T01890089
Loading
Personal Weather Stations






























Interactive Weather Map New forecast layout! Learn more

10-Day Weather Forecast

Advertisements
Track Severe Weather on mobile